首页
METAR-TAF:

METAR-TAF

机场 :

寧波櫟社國際機場

宁波市, 中华人民共和国

纬度: 29-49-36N, 经度: 121-27-43E, 海拔: 4米

当前天气观测

该预报发布于16分钟前的17:00 UTC
风速8节,风向西北
温度 4°C
湿度 75%
气压 1032 hPa
能見度: 4000
散云层高于3000英尺
轻雾

METAR: ZSNB 121700Z 32004MPS 4000 BR SCT030 04/00 Q1032 NOSIG

时间: 01:16 (17:16 UTC)

预报

该预报发布于8小时和49分钟前的08:27 UTC
预报有效从12日的 12点(UTC)到 13日的 12点(UTC)
风速10节,风向北转西北,有时为21节阵风
能見度: 4000
散云层高于3000英尺
轻雾

TAF: ZSNB 120827Z 1212/1312 33005G11MPS 4000 BR SCT030 TX10/1306Z TN03/1221Z

超过4000个机场的气象观测和天气预报(METAR&TAF报告)。

可查询的气象台以黄色和红色小点在地图上表示。

将鼠标移到小点上方,可查看气象台名称。

然后点击查看天气观测和预报。

如需切换地图:点击带黑十字的绿色按钮放大地图;点击带横线的绿色按钮缩小地图;或者点击绿色箭头查看邻近地区的地图。


METAR-TAF: